Henrietta, Ohio
Current Conditions -  °F | °C
As of 11:53 PM on Friday 24 Oct 2014 (Local Time) from KLPR Reporting Station
Broken Clouds Broken Clouds  
Wind Chill: 44°   Ceiling: 4500
Heat Index: 47°   Visibility: 10mi
Dew Point: 44°   Wind: 7mph
Humidity: 90%   Direction: 230°SW
Pressure: 30"   Gusts: NA
Location:  41.3705°N, 82.2583°W
Report Text: KLPR 250353Z AUTO 23006KT 10SM BKN045 08/07 A3000 RMK AO2 SLP160 T00830067 TSNO
Loading
Personal Weather Stations






























Interactive Weather Map
Tropical Storm Tracking
New forecast layout! Learn more

10-Day Weather Forecast

Advertisements
Track Severe Weather on mobile